Time;durP1;ratioP1;P1;durP2;ratioP2;P2;SDS_P1;SDS_P2;PMS_P1;PMS_P2;Temp;Humidity;BMP_temperature;BMP_pressure;BME280_temperature;BME280_humidity;BME280_pressure;Samples;Min_cycle;Max_cycle;Signal;HPM_P1;HPM_P2
2023/01/25 00:01:28;;;;;;;27.08;11.52;;;;;;;8.44;100.00;103116.94;5038434;28;20383;-80
2023/01/25 00:03:54;;;;;;;30.80;13.45;;;;;;;8.41;100.00;103109.13;5038496;28;20048;-79
2023/01/25 00:06:20;;;;;;;29.58;12.27;;;;;;;8.34;100.00;103096.09;5038678;28;20052;-80
2023/01/25 00:08:50;;;;;;;24.25;11.18;;;;;;;8.21;100.00;103075.59;5022239;28;20467;-78
2023/01/25 00:11:16;;;;;;;28.35;12.43;;;;;;;8.43;100.00;103104.53;5038758;28;20084;-79
2023/01/25 00:13:43;;;;;;;28.63;11.60;;;;;;;8.38;100.00;103100.28;5038487;28;20037;-79
2023/01/25 00:16:08;;;;;;;31.85;13.07;;;;;;;8.40;100.00;103104.75;5021715;28;20377;-80
2023/01/25 00:18:34;;;;;;;28.52;10.82;;;;;;;8.42;100.00;103105.50;5038153;28;20509;-79
2023/01/25 00:21:14;;;;;;;27.90;12.20;;;;;;;8.45;100.00;103107.97;5055779;28;20470;-80
2023/01/25 00:23:39;;;;;;;30.73;13.32;;;;;;;8.40;100.00;103094.88;5054539;28;20029;-80
2023/01/25 00:26:05;;;;;;;36.55;13.65;;;;;;;8.42;100.00;103103.66;5054696;28;20029;-80
2023/01/25 00:28:31;;;;;;;26.17;10.80;;;;;;;8.34;100.00;103096.09;5037619;28;20055;-79
2023/01/25 00:31:06;;;;;;;24.60;11.18;;;;;;;8.38;100.00;103099.44;5071391;28;20040;-81
2023/01/25 00:33:39;;;;;;;22.40;10.43;;;;;;;8.29;100.00;103087.53;5038242;28;20069;-80
2023/01/25 00:36:38;;;;;;;33.63;22.63;;;;;;;8.38;100.00;103102.97;5021732;28;20041;-81
2023/01/25 00:39:05;;;;;;;21.67;9.23;;;;;;;8.34;100.00;103098.78;5021548;28;20047;-80
2023/01/25 00:41:31;;;;;;;30.38;11.18;;;;;;;8.18;100.00;103062.38;5021353;28;20037;-79
2023/01/25 00:43:57;;;;;;;25.95;10.25;;;;;;;8.32;100.00;103087.31;5021303;28;20029;-80
2023/01/25 00:46:23;;;;;;;21.70;9.73;;;;;;;8.31;100.00;103084.75;5037614;28;20029;-79
2023/01/25 00:48:48;;;;;;;28.15;10.25;;;;;;;8.37;100.00;103085.19;5021390;28;20041;-79
2023/01/25 00:51:14;;;;;;;19.33;8.50;;;;;;;8.31;100.00;103069.53;5021391;28;20094;-79
2023/01/25 00:53:40;;;;;;;23.45;9.52;;;;;;;8.38;100.00;103086.03;5037432;28;20126;-79
2023/01/25 00:56:06;;;;;;;16.13;7.93;;;;;;;8.41;100.00;103085.84;5004879;28;20044;-79
2023/01/25 00:58:32;;;;;;;23.85;8.80;;;;;;;8.40;100.00;103077.94;5037689;28;20068;-80
2023/01/25 01:00:58;;;;;;;25.02;9.10;;;;;;;8.31;100.00;103069.53;5053579;28;20075;-79
2023/01/25 01:03:23;;;;;;;18.05;7.78;;;;;;;8.30;100.00;103072.28;5021234;28;20029;-79
2023/01/25 01:06:00;;;;;;;29.20;8.80;;;;;;;8.42;100.00;103094.78;5053514;28;20402;-78
2023/01/25 01:08:26;;;;;;;16.55;7.18;;;;;;;8.42;100.00;103097.47;5055145;28;20052;-78
2023/01/25 01:10:58;;;;;;;21.23;8.60;;;;;;;8.37;100.00;103078.97;5021009;28;20383;-78
2023/01/25 01:13:23;;;;;;;22.48;9.57;;;;;;;8.34;100.00;103085.38;5053552;28;20029;-78
2023/01/25 01:15:49;;;;;;;24.75;9.82;;;;;;;8.40;100.00;103089.50;5020455;28;20033;-81
2023/01/25 01:18:15;;;;;;;12.73;4.30;;;;;;;8.41;100.00;103093.03;5020391;28;20064;-77
2023/01/25 01:20:40;;;;;;;21.50;8.40;;;;;;;8.43;100.00;103083.94;5053378;28;20028;-78
2023/01/25 01:23:06;;;;;;;21.13;8.00;;;;;;;8.42;100.00;103087.59;5020328;28;20409;-79
2023/01/25 01:25:32;;;;;;;28.52;9.55;;;;;;;8.41;100.00;103085.84;5036758;28;20033;-79
2023/01/25 01:27:57;;;;;;;19.27;8.05;;;;;;;8.40;100.00;103080.59;5020564;28;20035;-79
2023/01/25 01:30:23;;;;;;;22.90;7.97;;;;;;;8.28;100.00;103064.38;5020513;28;20037;-80
2023/01/25 01:32:50;;;;;;;28.13;9.23;;;;;;;8.31;100.00;103069.53;5020695;28;20053;-78
2023/01/25 01:35:16;;;;;;;20.10;8.13;;;;;;;8.36;100.00;103070.06;5020409;28;20079;-78
2023/01/25 01:37:42;;;;;;;20.60;8.88;;;;;;;8.34;100.00;103069.31;5020682;28;20475;-78
2023/01/25 01:40:12;;;;;;;32.90;8.05;;;;;;;8.25;100.00;103048.47;5020139;28;20036;-78
2023/01/25 01:43:01;;;;;;;30.80;8.98;;;;;;;8.40;100.00;103072.56;5020198;28;20040;-78
2023/01/25 01:45:42;;;;;;;28.73;9.23;;;;;;;8.27;100.00;103051.06;5052957;28;20059;-79
2023/01/25 01:48:35;;;;;;;31.15;10.40;;;;;;;8.33;100.00;103058.66;5036603;28;20033;-79
2023/01/25 01:51:26;;;;;;;30.70;9.00;;;;;;;8.26;100.00;103049.34;5036301;28;20051;-79
2023/01/25 01:53:56;;;;;;;23.35;8.10;;;;;;;8.34;100.00;103063.94;5036230;28;20036;-79
2023/01/25 01:56:33;;;;;;;29.05;8.95;;;;;;;8.31;100.00;103049.91;5053086;28;20025;-78
2023/01/25 01:58:59;;;;;;;28.73;8.73;;;;;;;8.29;100.00;103050.00;5052632;28;20028;-78
2023/01/25 02:01:25;;;;;;;25.73;8.90;;;;;;;8.35;100.00;103056.75;5019304;28;20395;-78
2023/01/25 02:03:56;;;;;;;19.23;8.38;;;;;;;8.37;100.00;103060.19;5036449;28;20029;-78
2023/01/25 02:06:35;;;;;;;22.90;8.00;;;;;;;8.32;100.00;103048.94;5052614;28;20032;-81
2023/01/25 02:09:02;;;;;;;12.52;5.68;;;;;;;8.34;100.00;103050.53;5036331;28;20036;-79
2023/01/25 02:11:28;;;;;;;20.23;7.07;;;;;;;8.36;100.00;103051.31;5019639;28;20191;-80
2023/01/25 02:13:56;;;;;;;17.33;7.25;;;;;;;8.29;100.00;103033.91;5035710;28;20124;-79
2023/01/25 02:16:25;;;;;;;23.73;7.88;;;;;;;8.35;100.00;103043.34;5052264;28;20480;-79
2023/01/25 02:18:52;;;;;;;20.35;7.57;;;;;;;8.27;100.00;103029.63;5052747;28;20025;-79
2023/01/25 02:21:17;;;;;;;26.42;9.20;;;;;;;8.29;100.00;103039.28;5052148;28;20495;-79
2023/01/25 02:24:04;;;;;;;17.88;7.72;;;;;;;8.31;100.00;103058.78;5019592;28;20067;-80
2023/01/25 02:26:30;;;;;;;20.33;7.18;;;;;;;8.31;100.00;103064.16;5036130;28;20028;-79
2023/01/25 02:29:03;;;;;;;22.15;7.53;;;;;;;8.30;100.00;103061.56;5052230;28;20025;-79
2023/01/25 02:31:29;;;;;;;22.07;7.93;;;;;;;8.32;100.00;103068.53;5052470;28;20028;-78
2023/01/25 02:33:54;;;;;;;23.42;8.35;;;;;;;8.35;100.00;103068.31;5019602;28;20378;-79
2023/01/25 02:36:26;;;;;;;16.48;6.65;;;;;;;8.31;100.00;103061.47;5019645;28;20219;-79
2023/01/25 02:38:55;;;;;;;13.45;6.00;;;;;;;8.40;100.00;103080.59;5019062;28;20390;-79
2023/01/25 02:41:24;;;;;;;23.02;7.05;;;;;;;8.41;100.00;103087.69;5052156;28;20039;-79
2023/01/25 02:43:50;;;;;;;18.42;6.00;;;;;;;8.38;100.00;103076.16;5019159;28;20566;-79
2023/01/25 02:46:26;;;;;;;22.95;5.93;;;;;;;8.42;100.00;103078.69;5035617;28;20100;-79
2023/01/25 02:48:56;;;;;;;21.48;6.72;;;;;;;8.40;100.00;103072.56;5052275;28;20032;-79
2023/01/25 02:51:23;;;;;;;15.43;6.55;;;;;;;8.32;100.00;103057.81;5019407;28;20494;-79
2023/01/25 02:53:51;;;;;;;13.52;6.65;;;;;;;8.41;100.00;103076.94;5052135;28;20043;-79
2023/01/25 02:56:20;;;;;;;16.15;6.25;;;;;;;8.22;100.00;103046.00;5035681;28;20060;-79
2023/01/25 02:58:46;;;;;;;13.98;5.90;;;;;;;8.27;100.00;103062.63;5051874;28;20112;-79
2023/01/25 03:01:12;;;;;;;15.00;5.70;;;;;;;8.35;100.00;103067.47;5035054;28;20394;-81
2023/01/25 03:03:38;;;;;;;19.63;6.13;;;;;;;8.40;100.00;103075.25;5019137;28;20029;-79
2023/01/25 03:06:04;;;;;;;11.20;4.97;;;;;;;8.38;100.00;103068.13;5019177;28;20048;-79
2023/01/25 03:08:30;;;;;;;14.50;5.03;;;;;;;8.40;100.00;103075.25;5051958;28;20078;-80
2023/01/25 03:10:57;;;;;;;11.00;5.10;;;;;;;8.44;100.00;103076.72;5018628;28;20029;-80
2023/01/25 03:13:23;;;;;;;8.82;4.30;;;;;;;8.45;100.00;103076.66;5035111;28;20112;-79
2023/01/25 03:15:49;;;;;;;9.43;4.03;;;;;;;8.42;100.00;103070.66;5018882;28;20036;-79
2023/01/25 03:18:14;;;;;;;13.50;5.00;;;;;;;8.43;100.00;103062.47;5019005;28;20430;-79
2023/01/25 03:20:40;;;;;;;12.15;3.90;;;;;;;8.32;100.00;103046.25;5018982;28;20044;-78
2023/01/25 03:23:06;;;;;;;10.30;4.45;;;;;;;8.41;100.00;103056.34;5019010;28;20029;-79
2023/01/25 03:25:31;;;;;;;9.02;3.30;;;;;;;8.44;100.00;103061.53;5018697;28;20459;-79
2023/01/25 03:27:57;;;;;;;9.70;3.22;;;;;;;8.43;100.00;103050.91;5022344;28;20039;-80
2023/01/25 03:30:23;;;;;;;11.23;5.20;;;;;;;8.39;100.00;103034.19;5022792;28;20085;-79
2023/01/25 03:32:49;;;;;;;12.80;4.32;;;;;;;8.45;100.00;103043.63;5038492;28;20025;-79
2023/01/25 03:35:17;;;;;;;9.38;3.67;;;;;;;8.44;100.00;103044.56;5055542;28;20075;-79
2023/01/25 03:37:45;;;;;;;7.35;3.25;;;;;;;8.39;100.00;103028.81;5023525;28;20036;-80
2023/01/25 03:40:11;;;;;;;9.10;3.63;;;;;;;8.41;100.00;103028.69;5038629;28;20040;-81
2023/01/25 03:42:37;;;;;;;5.90;2.85;;;;;;;8.35;100.00;103014.72;5038428;28;20156;-79
2023/01/25 03:45:04;;;;;;;9.25;3.55;;;;;;;8.40;100.00;103025.16;5038745;28;20033;-79
2023/01/25 03:47:30;;;;;;;5.45;2.47;;;;;;;8.41;100.00;103031.38;5055047;28;20503;-79
2023/01/25 03:49:55;;;;;;;6.32;2.90;;;;;;;8.40;100.00;103035.88;5056230;28;20136;-79
2023/01/25 03:52:23;;;;;;;9.23;3.72;;;;;;;8.38;100.00;103027.91;5022245;28;20383;-78
2023/01/25 03:54:49;;;;;;;6.25;3.13;;;;;;;8.45;100.00;103030.22;5039238;28;20021;-81
2023/01/25 03:57:14;;;;;;;5.90;2.65;;;;;;;8.46;100.00;103027.41;5021896;28;20040;-79
2023/01/25 03:59:40;;;;;;;6.78;2.90;;;;;;;8.46;100.00;103018.50;5022412;28;20033;-80
2023/01/25 04:02:06;;;;;;;9.38;4.28;;;;;;;8.45;100.00;103019.50;5055046;28;20029;-79
2023/01/25 04:04:32;;;;;;;12.05;5.13;;;;;;;8.41;100.00;103015.28;5038583;28;20468;-78
2023/01/25 04:07:00;;;;;;;12.88;4.40;;;;;;;8.44;100.00;103015.06;5022191;28;20033;-79
2023/01/25 04:09:25;;;;;;;10.82;4.63;;;;;;;8.41;100.00;103024.19;5022097;28;20056;-79
2023/01/25 04:11:51;;;;;;;11.32;4.03;;;;;;;8.41;100.00;103015.28;5022210;28;20455;-78
2023/01/25 04:14:17;;;;;;;12.52;4.28;;;;;;;8.43;100.00;103021.41;5038035;28;20083;-79
2023/01/25 04:16:43;;;;;;;13.40;5.72;;;;;;;8.38;100.00;103013.66;5022036;28;20033;-79
2023/01/25 04:19:08;;;;;;;17.98;5.32;;;;;;;8.42;100.00;103011.66;5022092;28;20044;-79
2023/01/25 04:21:34;;;;;;;8.48;4.65;;;;;;;8.40;100.00;103009.06;5038247;28;20185;-79
2023/01/25 04:24:03;;;;;;;10.50;4.47;;;;;;;8.43;100.00;103008.84;5022328;28;20420;-78
2023/01/25 04:26:29;;;;;;;10.70;4.55;;;;;;;8.41;100.00;103000.06;5021563;28;20033;-79
2023/01/25 04:28:54;;;;;;;15.02;5.15;;;;;;;8.40;100.00;102990.31;5021331;28;20033;-79
2023/01/25 04:31:20;;;;;;;17.92;5.90;;;;;;;8.42;100.00;102995.59;5037826;28;20025;-79
2023/01/25 04:33:46;;;;;;;17.17;4.95;;;;;;;8.46;100.00;103008.63;5021695;28;20053;-79
2023/01/25 04:36:12;;;;;;;13.07;5.00;;;;;;;8.37;100.00;103003.91;5037610;28;20039;-79
2023/01/25 04:38:37;;;;;;;14.30;6.07;;;;;;;8.42;100.00;103015.19;5037764;28;20059;-79
2023/01/25 04:41:04;;;;;;;14.10;5.72;;;;;;;8.48;100.00;103027.31;5054014;28;20064;-79
2023/01/25 04:43:30;;;;;;;16.38;5.88;;;;;;;8.50;100.00;103025.41;5021491;28;20037;-79
2023/01/25 04:45:55;;;;;;;19.13;5.72;;;;;;;8.47;100.00;103014.88;5054146;28;20386;-79
2023/01/25 04:48:21;;;;;;;17.08;6.22;;;;;;;8.48;100.00;103020.13;5021276;28;20462;-80
2023/01/25 04:50:47;;;;;;;20.65;5.35;;;;;;;8.39;100.00;102996.66;5054171;28;20037;-80
2023/01/25 04:53:13;;;;;;;12.13;4.82;;;;;;;8.50;100.00;103010.16;5054295;28;20383;-79
2023/01/25 04:55:38;;;;;;;18.25;5.30;;;;;;;8.52;100.00;103007.34;5021393;28;20063;-79
2023/01/25 04:58:04;;;;;;;22.38;5.60;;;;;;;8.54;100.00;103008.09;5037231;28;20029;-79
2023/01/25 05:00:31;;;;;;;15.60;5.28;;;;;;;8.44;100.00;102990.94;5021338;28;20059;-78
2023/01/25 05:02:57;;;;;;;11.35;4.75;;;;;;;8.57;100.00;103021.28;5037567;28;20451;-79
2023/01/25 05:05:23;;;;;;;15.60;5.22;;;;;;;8.56;100.00;103025.81;5021200;28;20040;-81
2023/01/25 05:07:48;;;;;;;10.95;4.65;;;;;;;8.56;100.00;103028.50;5021073;28;20025;-78
2023/01/25 05:10:14;;;;;;;15.10;4.53;;;;;;;8.58;100.00;103026.56;5020983;28;20474;-79
2023/01/25 05:12:40;;;;;;;11.32;3.83;;;;;;;8.56;100.00;103022.28;5021100;28;20056;-80
2023/01/25 05:15:06;;;;;;;8.02;3.28;;;;;;;8.62;100.00;103024.50;5020897;28;20064;-79
2023/01/25 05:17:34;;;;;;;9.70;3.50;;;;;;;8.63;100.00;103023.56;5037013;28;20063;-77
2023/01/25 05:20:00;;;;;;;7.40;3.08;;;;;;;8.65;100.00;103026.97;5036887;28;20065;-79
2023/01/25 05:22:25;;;;;;;11.88;2.55;;;;;;;8.62;100.00;103018.28;5020735;28;20076;-79
2023/01/25 05:24:51;;;;;;;12.20;3.35;;;;;;;8.67;100.00;103024.19;5020560;28;20111;-79
2023/01/25 05:27:18;;;;;;;8.10;3.00;;;;;;;8.68;100.00;103015.19;5020705;28;20082;-79
2023/01/25 05:29:45;;;;;;;10.77;3.00;;;;;;;8.61;100.00;103004.03;5036887;28;20029;-78
2023/01/25 05:32:13;;;;;;;8.32;2.83;;;;;;;8.59;100.00;102993.41;5036881;28;20132;-80
2023/01/25 05:34:39;;;;;;;8.07;2.45;;;;;;;8.68;100.00;103016.06;5053518;28;20094;-79
2023/01/25 05:37:07;;;;;;;4.97;1.52;;;;;;;8.65;100.00;103002.84;5036789;28;20029;-78
2023/01/25 05:39:33;;;;;;;7.80;2.58;;;;;;;8.68;100.00;103002.66;5053385;28;20033;-78
2023/01/25 05:41:59;;;;;;;5.38;2.28;;;;;;;8.65;100.00;102986.75;5036906;28;20045;-78
2023/01/25 05:44:24;;;;;;;7.55;2.15;;;;;;;8.72;100.00;102985.34;5019758;28;20040;-77
2023/01/25 05:46:50;;;;;;;3.05;1.48;;;;;;;8.70;100.00;102989.97;5020276;28;20057;-78
2023/01/25 05:49:17;;;;;;;4.47;1.70;;;;;;;8.72;100.00;102988.03;5019195;28;20152;-79
2023/01/25 05:51:43;;;;;;;5.18;1.80;;;;;;;8.73;100.00;102995.13;5036064;28;20036;-78
2023/01/25 05:54:12;;;;;;;7.72;2.25;;;;;;;8.64;100.00;102986.88;5020248;28;20060;-78
2023/01/25 05:56:38;;;;;;;6.80;2.25;;;;;;;8.67;100.00;102992.88;5052577;28;20475;-79
2023/01/25 05:59:05;;;;;;;8.18;2.13;;;;;;;8.61;100.00;102987.94;5019958;28;20068;-79
2023/01/25 06:01:31;;;;;;;4.30;1.50;;;;;;;8.76;100.00;103016.38;5020280;28;20103;-78
2023/01/25 06:03:57;;;;;;;10.05;3.15;;;;;;;8.75;100.00;103017.31;5019834;28;20032;-79
2023/01/25 06:06:23;;;;;;;4.72;2.20;;;;;;;8.74;100.00;103015.63;5019994;28;20029;-79
2023/01/25 06:08:49;;;;;;;5.32;2.28;;;;;;;8.75;100.00;103011.09;5019516;28;20029;-78
2023/01/25 06:11:18;;;;;;;6.88;1.95;;;;;;;8.74;100.00;103015.63;5019990;28;20033;-78
2023/01/25 06:13:45;;;;;;;4.85;1.92;;;;;;;8.72;100.00;103006.81;5052871;28;20033;-79
2023/01/25 06:16:11;;;;;;;7.63;2.03;;;;;;;8.77;100.00;103006.50;5052660;28;20033;-79
2023/01/25 06:18:36;;;;;;;5.03;1.73;;;;;;;8.77;100.00;103007.34;5019706;28;20494;-79
2023/01/25 06:21:03;;;;;;;11.77;1.88;;;;;;;8.80;100.00;103012.50;5052594;28;20044;-78
2023/01/25 06:23:29;;;;;;;4.22;1.73;;;;;;;8.78;100.00;103002.84;5019834;28;20110;-79
2023/01/25 06:26:03;;;;;;;7.53;2.47;;;;;;;8.79;100.00;102999.22;5019284;28;20498;-78
2023/01/25 06:28:32;;;;;;;5.45;2.20;;;;;;;8.80;100.00;102999.06;5019523;28;20036;-78
2023/01/25 06:31:06;;;;;;;10.82;2.45;;;;;;;8.79;100.00;102994.69;5019622;28;20418;-79
2023/01/25 06:33:32;;;;;;;14.10;1.90;;;;;;;8.82;100.00;103003.50;5051931;28;20025;-79
2023/01/25 06:36:03;;;;;;;13.88;2.50;;;;;;;8.72;100.00;102984.50;5035420;28;20086;-79
2023/01/25 06:38:28;;;;;;;5.18;2.10;;;;;;;8.77;100.00;102988.56;5036076;28;20096;-79
2023/01/25 06:41:00;;;;;;;7.95;2.33;;;;;;;8.77;100.00;102988.56;5019485;28;20471;-78
2023/01/25 06:43:26;;;;;;;11.10;1.92;;;;;;;8.72;100.00;102971.09;5035296;28;20086;-79
2023/01/25 06:45:56;;;;;;;5.15;1.83;;;;;;;8.78;100.00;102979.53;5019040;28;20036;-79
2023/01/25 06:48:22;;;;;;;9.43;1.92;;;;;;;8.79;100.00;102973.22;5035534;28;20027;-78
2023/01/25 06:50:55;;;;;;;4.47;1.92;;;;;;;8.74;100.00;102970.03;5052349;28;20112;-79
2023/01/25 06:53:21;;;;;;;4.97;1.67;;;;;;;8.77;100.00;102977.84;5035892;28;20029;-79
2023/01/25 06:55:46;;;;;;;11.77;2.20;;;;;;;8.77;100.00;102974.31;5052195;28;20498;-79
2023/01/25 06:58:12;;;;;;;15.48;2.50;;;;;;;8.80;100.00;102982.13;5019120;28;20467;-80
2023/01/25 07:00:38;;;;;;;8.48;1.92;;;;;;;8.76;100.00;102972.59;5020427;28;20037;-80
2023/01/25 07:03:03;;;;;;;11.25;2.80;;;;;;;8.79;100.00;102970.56;5023473;28;20037;-80
2023/01/25 07:05:29;;;;;;;11.00;4.03;;;;;;;8.79;100.00;102959.81;5039206;28;20471;-79
2023/01/25 07:07:55;;;;;;;12.68;2.88;;;;;;;8.78;100.00;102952.72;5023180;28;20044;-79
2023/01/25 07:10:24;;;;;;;12.60;2.67;;;;;;;8.75;100.00;102939.53;5039033;28;20025;-79
2023/01/25 07:12:49;;;;;;;9.57;2.20;;;;;;;8.75;100.00;102944.91;5023147;28;20056;-78
2023/01/25 07:15:15;;;;;;;7.32;2.15;;;;;;;8.72;100.00;102928.19;5039242;28;20479;-78
2023/01/25 07:17:43;;;;;;;6.50;1.92;;;;;;;8.71;100.00;102938.06;5023006;28;20048;-77
2023/01/25 07:20:09;;;;;;;8.10;1.70;;;;;;;8.70;100.00;102935.47;5022955;28;20044;-80
2023/01/25 07:22:35;;;;;;;7.82;2.70;;;;;;;8.73;100.00;102930.75;5023144;28;20033;-80
2023/01/25 07:25:01;;;;;;;7.10;1.98;;;;;;;8.73;100.00;102935.25;5022585;28;20380;-77
2023/01/25 07:27:27;;;;;;;4.70;1.85;;;;;;;8.77;100.00;102942.13;5038748;28;20387;-78
2023/01/25 07:29:52;;;;;;;5.65;1.98;;;;;;;8.75;100.00;102927.94;5022647;28;20040;-78
2023/01/25 07:32:18;;;;;;;10.52;2.55;;;;;;;8.76;100.00;102927.84;5038424;28;20037;-79
2023/01/25 07:34:44;;;;;;;12.57;2.75;;;;;;;8.79;100.00;102926.78;5022784;28;20033;-80
2023/01/25 07:37:09;;;;;;;5.22;1.50;;;;;;;8.74;100.00;102908.31;5038521;28;20063;-78
2023/01/25 07:39:35;;;;;;;3.67;1.45;;;;;;;8.73;100.00;102920.03;5022602;28;20037;-78
2023/01/25 07:42:01;;;;;;;7.43;3.28;;;;;;;8.68;100.00;102916.81;5022185;28;20123;-78
2023/01/25 07:44:27;;;;;;;11.55;2.53;;;;;;;8.75;100.00;102941.38;5021904;28;20040;-78
2023/01/25 07:47:04;;;;;;;7.15;1.83;;;;;;;8.77;100.00;102940.28;5022496;28;20036;-78
2023/01/25 07:49:30;;;;;;;7.85;1.98;;;;;;;8.73;100.00;102943.28;5039977;28;20120;-78
2023/01/25 07:51:56;;;;;;;6.35;1.75;;;;;;;8.77;100.00;102952.84;5038758;28;20432;-78
2023/01/25 07:54:22;;;;;;;7.70;2.08;;;;;;;8.70;100.00;102932.78;5038990;28;20036;-77
2023/01/25 07:56:48;;;;;;;6.10;2.25;;;;;;;8.74;100.00;102939.66;5022047;28;20463;-78
2023/01/25 07:59:15;;;;;;;9.43;1.90;;;;;;;8.73;100.00;102932.56;5022451;28;20074;-78
2023/01/25 08:01:40;;;;;;;7.65;2.08;;;;;;;8.75;100.00;102934.16;5055073;28;20028;-82
2023/01/25 08:04:06;;;;;;;10.85;2.20;;;;;;;8.75;100.00;102926.13;5022036;28;20383;-80
2023/01/25 08:06:37;;;;;;;8.13;2.00;;;;;;;8.77;100.00;102942.13;5022094;28;20437;-78
2023/01/25 08:09:16;;;;;;;5.45;1.95;;;;;;;8.76;100.00;102941.28;5055003;28;20029;-81
2023/01/25 08:11:42;;;;;;;6.35;1.92;;;;;;;8.76;100.00;102952.00;5038003;28;20033;-79
2023/01/25 08:14:07;;;;;;;8.73;2.60;;;;;;;8.75;100.00;102941.38;5038061;28;20025;-79
2023/01/25 08:16:35;;;;;;;9.82;2.28;;;;;;;8.76;100.00;102945.78;5038155;28;20060;-79
2023/01/25 08:19:02;;;;;;;6.90;1.75;;;;;;;8.80;100.00;102947.25;5022317;28;20036;-79
2023/01/25 08:21:31;;;;;;;8.32;2.03;;;;;;;8.80;100.00;102956.16;5054712;28;20025;-79
2023/01/25 08:23:58;;;;;;;12.02;2.30;;;;;;;8.80;100.00;102966.03;5037665;28;20390;-81
2023/01/25 08:26:24;;;;;;;11.63;3.00;;;;;;;8.72;100.00;102966.56;5037765;28;20021;-80
2023/01/25 08:28:52;;;;;;;10.25;2.50;;;;;;;8.82;100.00;102972.16;5037679;28;20043;-79
2023/01/25 08:31:21;;;;;;;10.57;1.90;;;;;;;8.81;100.00;102959.69;5021950;28;20123;-78
2023/01/25 08:33:48;;;;;;;11.02;1.98;;;;;;;8.81;100.00;102938.22;5038062;28;20494;-79
2023/01/25 08:36:15;;;;;;;10.00;1.80;;;;;;;8.82;100.00;102933.75;5038152;28;20108;-77
2023/01/25 08:38:41;;;;;;;5.35;1.88;;;;;;;8.80;100.00;102933.84;5037638;28;20036;-79
2023/01/25 08:41:09;;;;;;;5.50;1.65;;;;;;;8.84;100.00;102929.09;5021432;28;20505;-79
2023/01/25 08:43:35;;;;;;;6.20;1.83;;;;;;;8.85;100.00;102920.97;5021243;28;20098;-81
2023/01/25 08:46:02;;;;;;;8.88;1.98;;;;;;;8.88;100.00;102923.41;5037426;28;20037;-79
2023/01/25 08:48:28;;;;;;;17.10;4.25;;;;;;;8.92;100.00;102919.56;5021277;28;20028;-78
2023/01/25 08:50:54;;;;;;;8.82;1.52;;;;;;;8.90;100.00;102897.34;5021187;28;20047;-79
2023/01/25 08:53:20;;;;;;;4.45;1.65;;;;;;;9.11;100.00;102921.75;5021374;28;20391;-79
2023/01/25 08:55:45;;;;;;;8.98;1.63;;;;;;;9.19;100.00;102930.06;5021151;28;20037;-79
2023/01/25 08:58:12;;;;;;;5.63;1.33;;;;;;;9.27;100.00;102942.06;5053996;28;20391;-80
2023/01/25 09:00:42;;;;;;;8.25;1.70;;;;;;;9.31;100.00;102940.88;5053874;28;20032;-79
2023/01/25 09:03:09;;;;;;;5.93;1.42;;;;;;;9.38;100.00;102950.19;5054100;28;20028;-80
2023/01/25 09:05:36;;;;;;;5.30;2.55;;;;;;;9.13;100.00;102903.69;5037206;28;20387;-81
2023/01/25 09:08:03;;;;;;;9.30;2.60;;;;;;;9.40;100.00;102951.78;5053948;28;20029;-77
2023/01/25 09:10:29;;;;;;;14.52;1.63;;;;;;;9.45;100.00;102955.00;5054169;28;20078;-82
2023/01/25 09:12:55;;;;;;;8.48;2.20;;;;;;;9.48;100.00;102958.41;5053671;28;20043;-88
2023/01/25 09:15:23;;;;;;;1.63;1.05;;;;;;;9.36;100.00;102928.81;5036760;28;20037;-88
2023/01/25 09:17:50;;;;;;;11.40;2.33;;;;;;;9.48;100.00;102939.63;5053838;28;20392;-88
2023/01/25 09:20:16;;;;;;;8.75;2.00;;;;;;;9.53;100.00;102950.88;5020987;28;20061;-88
2023/01/25 09:22:42;;;;;;;8.27;1.83;;;;;;;9.52;100.00;102944.63;5037197;28;20083;-88
2023/01/25 09:25:08;;;;;;;3.85;1.38;;;;;;;9.49;100.00;102944.88;5036103;28;20037;-88
2023/01/25 09:27:33;;;;;;;7.82;2.35;;;;;;;9.50;100.00;102935.84;5020864;28;20494;-88
2023/01/25 09:29:59;;;;;;;8.88;2.00;;;;;;;9.57;100.00;102937.09;5037226;28;20029;-88
2023/01/25 09:32:26;;;;;;;11.45;1.92;;;;;;;9.57;100.00;102944.28;5020823;28;20061;-88
2023/01/25 09:34:52;;;;;;;4.22;1.60;;;;;;;9.59;100.00;102948.56;5037262;28;20060;-88
2023/01/25 09:37:18;;;;;;;2.30;1.23;;;;;;;9.62;100.00;102964.44;5053470;28;20025;-87
2023/01/25 09:39:43;;;;;;;5.05;1.52;;;;;;;9.58;100.00;102937.94;5053477;28;20109;-87
2023/01/25 09:42:33;;;;;;;5.15;1.42;;;;;;;9.65;100.00;102942.72;5037035;28;20479;-88
2023/01/25 09:45:06;;;;;;;8.60;1.42;;;;;;;9.67;100.00;102943.47;5036788;28;20033;-86
2023/01/25 09:47:50;;;;;;;0.70;0.70;;;;;;;9.69;100.00;102946.06;5070224;28;20497;-87
2023/01/25 09:50:27;;;;;;;0.30;0.30;;;;;;;9.59;100.00;102935.13;5053319;28;20079;-87
2023/01/25 09:53:16;;;;;;;0.30;0.30;;;;;;;9.66;100.00;102935.56;5036597;28;20036;-87
2023/01/25 09:55:41;;;;;;;0.30;0.30;;;;;;;9.73;100.00;102952.88;5036608;28;20082;-87
2023/01/25 09:58:19;;;;;;;0.30;0.30;;;;;;;9.70;100.00;102931.63;5036777;28;20037;-87
2023/01/25 10:00:48;;;;;;;0.30;0.30;;;;;;;9.81;100.00;102946.94;5036594;28;20082;-86
2023/01/25 10:03:26;;;;;;;0.30;0.30;;;;;;;9.86;100.00;102942.06;5053944;28;20033;-87
2023/01/25 10:05:55;;;;;;;0.40;0.40;;;;;;;9.90;100.00;102932.81;5054607;28;20381;-86
2023/01/25 10:08:24;;;;;;;0.30;0.30;;;;;;;10.00;100.00;102933.81;5053426;28;20043;-86
2023/01/25 10:10:58;;;;;;;0.30;0.30;;;;;;;10.10;100.00;102923.19;5053594;28;20025;-86
2023/01/25 10:13:30;;;;;;;0.40;0.40;;;;;;;10.18;100.00;102923.44;5052890;28;20087;-86
2023/01/25 10:16:04;;;;;;;0.40;0.40;;;;;;;10.19;100.00;102906.34;5020185;28;20128;-86
2023/01/25 10:18:41;;;;;;;0.40;0.40;;;;;;;10.38;100.00;102921.91;5036555;28;20044;-85
2023/01/25 10:21:13;;;;;;;0.40;0.40;;;;;;;10.58;100.00;102923.00;5052468;28;20035;-86
2023/01/25 10:23:52;;;;;;;0.30;0.30;;;;;;;10.79;100.00;102917.72;5052799;28;20120;-85
2023/01/25 10:26:25;;;;;;;0.40;0.40;;;;;;;10.90;100.00;102920.44;5052801;28;20056;-85
2023/01/25 10:29:10;;;;;;;0.50;0.50;;;;;;;11.06;100.00;102911.94;5053580;28;20044;-85
2023/01/25 10:31:45;;;;;;;0.40;0.40;;;;;;;11.25;100.00;102905.91;5052359;28;20086;-85
2023/01/25 10:34:19;;;;;;;0.40;0.40;;;;;;;11.41;100.00;102911.69;5036255;28;20524;-85
2023/01/25 10:36:53;;;;;;;0.40;0.40;;;;;;;11.42;100.00;102902.63;5053359;28;20033;-85
2023/01/25 10:39:19;;;;;;;;;;;;;;;11.73;100.00;102916.22;5036502;28;20064;-85
2023/01/25 10:41:58;;;;;;;0.30;0.30;;;;;;;11.60;100.00;102924.47;5069244;28;20359;-86
2023/01/25 10:44:24;;;;;;;0.30;0.30;;;;;;;11.34;100.00;102918.56;5019556;28;20052;-84
2023/01/25 10:47:24;;;;;;;0.45;0.45;;;;;;;11.18;100.00;102927.06;5035684;28;20132;-85
2023/01/25 10:49:54;;;;;;;0.40;0.40;;;;;;;10.98;100.00;102931.41;5052074;28;20044;-85
2023/01/25 10:52:36;;;;;;;0.40;0.40;;;;;;;10.87;100.00;102935.94;5035992;28;20045;-85
2023/01/25 10:55:18;;;;;;;0.30;0.30;;;;;;;10.70;100.00;102942.69;5021500;28;20493;-85
2023/01/25 10:57:49;;;;;;;0.32;0.32;;;;;;;10.61;100.00;102948.81;5052719;28;20476;-85
2023/01/25 11:00:41;;;;;;;0.40;0.40;;;;;;;10.49;100.00;102939.88;5052457;28;20029;-85
2023/01/25 11:03:20;;;;;;;0.52;0.45;;;;;;;10.46;100.00;102950.91;5035805;28;20060;-85
2023/01/25 11:05:56;;;;;;;0.30;0.30;;;;;;;10.38;100.00;102948.81;5051827;28;20044;-85
2023/01/25 11:08:32;;;;;;;0.40;0.40;;;;;;;10.44;100.00;102958.22;5019366;28;20029;-85
2023/01/25 11:10:58;;;;;;;0.32;0.32;;;;;;;10.41;100.00;102953.09;5035636;28;20097;-85
2023/01/25 11:13:26;;;;;;;0.40;0.40;;;;;;;10.36;100.00;102956.13;5052327;28;20547;-86
2023/01/25 11:15:55;;;;;;;0.40;0.40;;;;;;;10.24;100.00;102967.81;5035743;28;20036;-85
2023/01/25 11:18:21;;;;;;;0.40;0.40;;;;;;;10.29;100.00;102976.41;5019262;28;20041;-85
2023/01/25 11:20:49;;;;;;;0.40;0.40;;;;;;;10.34;100.00;102974.22;5035380;28;20502;-85
2023/01/25 11:23:23;;;;;;;0.40;0.40;;;;;;;10.48;100.00;102968.63;5019654;28;20056;-85
2023/01/25 11:25:50;;;;;;;0.40;0.40;;;;;;;10.65;100.00;102971.81;5036892;28;20078;-85